Central Heights, Iowa
Current Conditions -  °F | °C
As of 7:53 AM on Monday 20 Oct 2014 (Local Time) from KMCW Reporting Station
Clear Clear  
Wind Chill: 35°   Ceiling: Unl
Heat Index: 40°   Visibility: 10mi
Dew Point: 38°   Wind: 7mph
Humidity: 93%   Direction: 300°WNW
Pressure: 30"   Gusts: NA
Location:  43.1451°N, 93.1385°W
Report Text: KMCW 201253Z AUTO 30006KT 10SM CLR 04/03 A3000 RMK AO2 SLP159 T00440033
Loading
Personal Weather Stations






























Interactive Weather Map
Tropical Storm Tracking
New forecast layout! Learn more

10-Day Weather Forecast

Advertisements
Track Severe Weather on mobile